Terminal Aerodrome Forecast
Issued by NWS

Home | Current Version | Previous Version | Text Only | Print | Product List | Glossary On
Versions: 1 2 3 4 5 6 7 8 9 10 11 12 13 14 15 16
000
FTUS45 KVEF 210200 AAA
TAFEED
TAF AMD
KEED 210207Z 2102/2124 22008KT P6SM SCT120
     FM210600 VRB05KT P6SM SCT120
     FM212000 20010G20KT P6SM BKN100 PROB30 2121/2124 -TSRA
      BKN100CB=

USA.gov is the U.S. government's official web portal to all federal, state and local government web resources and services.